Pagrindinis puslapis
METAR-TAF:

METAR-TAF

Oro uostai :

Abadeh, Iranas

platuma: 31-11N, ilguma: 052-40E, Aukštis: 2004 m

Dabartinis oras

Ataskaita buvo paskelbta 46 minutes, ne 14:00 UTC
Vėjas 6 kt iš Šiaurės
Temperatūra 29°C
Drėgmė 8%
Slėgis 1016 hPa
Matomumas 10 km arba daugiau
nėra debesų žemiau 1500 m ir nėra kamuolinių lietaus debesų

METAR: OISA 181400Z 36006KT CAVOK 29/M09 Q1015 A3000

Laikas: 19:16 (14:46 UTC)


TAF: trūkstamas

Orai ataskaitas ir orų prognozės (METAR, TAF).

turimą stotys yra geltonos ir raudonos taškus žemėlapyje.

Perkelti pele per norėdami pamatyti stoties vardą.

Tada spustelėkite, norėdami matyti oro stebėjimo ir prognozės.

Norėdami pakeisti žemėlapį: spustelėkite ant žalios mygtukų su juodo kryžiaus žemyn,; žalią mygtuką su brūkšneliu, jei norite nutolinti; arba žalių rodyklių gretimoms žemėlapius.


METAR-TAF: